createdAt,value
2022-08-05T00:01:27.868Z,18.1
2022-08-05T00:03:26.226Z,18.1
2022-08-05T00:06:03.069Z,18.1
2022-08-05T00:08:00.318Z,18.2
2022-08-05T00:09:27.492Z,18.2
2022-08-05T00:11:34.456Z,18.2
2022-08-05T00:13:38.295Z,18.1
2022-08-05T00:15:56.162Z,18.1
2022-08-05T00:17:28.745Z,18.2
2022-08-05T00:19:33.776Z,18.2
2022-08-05T00:21:30.505Z,18.2
2022-08-05T00:23:44.443Z,18.2
2022-08-05T00:25:45.761Z,18.2
2022-08-05T00:27:36.601Z,18.4
2022-08-05T00:29:38.018Z,18.4
2022-08-05T00:31:53.064Z,18.1
2022-08-05T00:34:56.489Z,17.9
2022-08-05T00:35:33.142Z,17.9
2022-08-05T00:37:35.777Z,18.1
2022-08-05T00:39:37.009Z,18.2
2022-08-05T00:41:51.993Z,18.2
2022-08-05T00:43:46.697Z,18.1
2022-08-05T00:45:38.867Z,18.1
2022-08-05T00:47:52.919Z,18
2022-08-05T00:49:44.620Z,17.9
2022-08-05T00:51:49.995Z,17.9
2022-08-05T00:54:01.218Z,17.9
2022-08-05T00:55:42.579Z,17.8
2022-08-05T00:57:55.435Z,17.8
2022-08-05T00:59:44.469Z,17.8
2022-08-05T01:01:42.679Z,17.8
2022-08-05T01:03:36.006Z,17.6
2022-08-05T01:05:36.480Z,17.5
2022-08-05T01:07:36.456Z,17.5
2022-08-05T01:09:36.785Z,17.5
2022-08-05T01:11:38.771Z,17.6
2022-08-05T01:13:59.045Z,17.6
2022-08-05T01:15:47.848Z,17.5
2022-08-05T01:17:44.132Z,17.5
2022-08-05T01:20:00.976Z,17.5
2022-08-05T01:21:55.023Z,17.5
2022-08-05T01:23:56.900Z,17.5
2022-08-05T01:25:53.750Z,17.5
2022-08-05T01:28:05.655Z,17.3
2022-08-05T01:29:44.205Z,17.3
2022-08-05T01:31:47.438Z,17.3
2022-08-05T01:33:49.198Z,17.2
2022-08-05T01:35:51.131Z,17.2
2022-08-05T01:37:45.181Z,17.1
2022-08-05T01:39:47.730Z,17.1
2022-08-05T01:41:44.492Z,17.3
2022-08-05T01:43:43.641Z,17.3
2022-08-05T01:45:43.401Z,17.2
2022-08-05T01:47:45.773Z,17.2
2022-08-05T01:50:01.336Z,17.3
2022-08-05T01:51:44.203Z,17.3
2022-08-05T01:53:56.988Z,17.3
2022-08-05T01:55:45.524Z,17.3
2022-08-05T01:58:11.440Z,17.2
2022-08-05T01:59:48.206Z,17.2
2022-08-05T02:01:49.076Z,17.2
2022-08-05T02:03:48.191Z,17.2
2022-08-05T02:05:46.915Z,17.2
2022-08-05T02:07:47.276Z,17.2
2022-08-05T02:09:46.644Z,17.2
2022-08-05T02:11:52.485Z,17.2
2022-08-05T02:13:54.113Z,17.3
2022-08-05T02:15:53.251Z,17.4
2022-08-05T02:18:28.785Z,17.4
2022-08-05T02:19:54.535Z,17.4
2022-08-05T02:21:53.468Z,17.4
2022-08-05T02:23:52.731Z,17.4
2022-08-05T02:25:51.531Z,17.4
2022-08-05T02:27:59.699Z,17.5
2022-08-05T02:29:59.849Z,17.5
2022-08-05T02:31:53.345Z,17.5
2022-08-05T02:34:02.724Z,17.5
2022-08-05T02:35:58.913Z,17.6
2022-08-05T02:37:54.161Z,17.6
2022-08-05T02:39:52.795Z,17.7
2022-08-05T02:42:00.964Z,17.7
2022-08-05T02:44:06.112Z,17.7
2022-08-05T02:45:53.959Z,17.7
2022-08-05T02:48:06.769Z,17.7
2022-08-05T02:49:53.928Z,17.7
2022-08-05T02:52:03.370Z,17.7
2022-08-05T02:53:54.851Z,17.6
2022-08-05T02:56:00.370Z,17.6
2022-08-05T02:58:11.320Z,17.6
2022-08-05T02:59:55.367Z,17.4
2022-08-05T03:01:57.070Z,17.3
2022-08-05T03:04:02.782Z,17.2
2022-08-05T03:06:55.959Z,17.3
2022-08-05T03:07:56.643Z,17.3
2022-08-05T03:09:57.162Z,17.3
2022-08-05T03:11:58.320Z,17.3
2022-08-05T03:14:03.427Z,17.3
2022-08-05T03:15:57.799Z,17.4
2022-08-05T03:17:59.404Z,17.4
2022-08-05T03:19:58.733Z,17.3
2022-08-05T03:21:58.832Z,17.6
2022-08-05T03:23:59.807Z,17.6
2022-08-05T03:26:04.761Z,17.9
2022-08-05T03:28:00.810Z,17.9
2022-08-05T03:30:08.414Z,18
2022-08-05T03:32:01.021Z,17.9
2022-08-05T03:34:01.205Z,18.1
2022-08-05T03:36:01.430Z,18.3
2022-08-05T03:38:01.868Z,18.3
2022-08-05T03:40:03.974Z,18.5
2022-08-05T03:42:03.433Z,18.7
2022-08-05T03:44:10.918Z,18.9
2022-08-05T03:46:04.108Z,18.9
2022-08-05T03:48:04.099Z,19.1
2022-08-05T03:50:04.774Z,19.3
2022-08-05T03:52:50.309Z,19.4
2022-08-05T03:55:50.631Z,19.6
2022-08-05T03:56:17.986Z,19.9
2022-08-05T03:58:10.364Z,20
2022-08-05T04:00:16.709Z,20
2022-08-05T04:02:12.190Z,20.1
2022-08-05T04:04:10.913Z,20.4
2022-08-05T04:06:08.670Z,20.5
2022-08-05T04:08:14.601Z,20.7
2022-08-05T04:10:09.601Z,20.7
2022-08-05T04:12:23.686Z,20.8
2022-08-05T04:14:10.495Z,20.9
2022-08-05T04:16:14.299Z,20.9
2022-08-05T04:18:20.406Z,21.1
2022-08-05T04:20:17.472Z,21.2
2022-08-05T04:22:12.501Z,21.3
2022-08-05T04:24:19.231Z,21.3
2022-08-05T04:26:13.899Z,21.5
2022-08-05T04:28:13.883Z,21.7
2022-08-05T04:30:13.920Z,21.8
2022-08-05T04:32:14.573Z,21.9
2022-08-05T04:34:31.710Z,22.1
2022-08-05T04:36:38.510Z,21.9
2022-08-05T04:38:16.142Z,22.2
2022-08-05T04:40:19.359Z,22.2
2022-08-05T04:42:17.627Z,22.4
2022-08-05T04:44:24.421Z,22.4
2022-08-05T04:46:27.918Z,22.6
2022-08-05T04:48:27.571Z,22.6
2022-08-05T04:50:34.513Z,22.8
2022-08-05T04:52:20.723Z,22.7
2022-08-05T04:54:20.984Z,22.7
2022-08-05T04:56:34.326Z,22.6
2022-08-05T04:58:22.230Z,22.6
2022-08-05T05:00:23.306Z,22.6
2022-08-05T05:02:37.170Z,22.7
2022-08-05T05:04:24.143Z,22.7
2022-08-05T05:06:39.919Z,22.7
2022-08-05T05:08:30.191Z,22.7
2022-08-05T05:10:25.925Z,22.4
2022-08-05T05:12:27.444Z,22.6
2022-08-05T05:14:31.619Z,22.7
2022-08-05T05:16:30.455Z,22.7
2022-08-05T05:18:33.204Z,22.8
2022-08-05T05:20:29.608Z,23
2022-08-05T05:22:29.643Z,23.1
2022-08-05T05:24:57.898Z,23.1
2022-08-05T05:26:32.775Z,23.3
2022-08-05T05:28:32.889Z,23.3
2022-08-05T05:30:33.479Z,23.3
2022-08-05T05:32:32.951Z,23.4
2022-08-05T05:34:33.569Z,23.4
2022-08-05T05:36:35.408Z,23.4
2022-08-05T05:38:34.963Z,23.6
2022-08-05T05:40:35.821Z,23.7
2022-08-05T05:42:36.501Z,23.8
2022-08-05T05:44:37.749Z,23.9
2022-08-05T05:46:37.787Z,24
2022-08-05T05:48:38.530Z,24.2
2022-08-05T05:50:40.937Z,24.3
2022-08-05T05:52:40.858Z,24.3
2022-08-05T05:54:50.794Z,24.4
2022-08-05T05:56:41.393Z,24.4
2022-08-05T05:58:42.122Z,24.5
2022-08-05T06:00:45.813Z,24.7
2022-08-05T06:02:44.511Z,24.8
2022-08-05T06:04:44.412Z,24.8
2022-08-05T06:06:47.329Z,24.8
2022-08-05T06:08:49.255Z,24.8
2022-08-05T06:10:52.500Z,24.8
2022-08-05T06:12:47.287Z,25
2022-08-05T06:14:47.985Z,25
2022-08-05T06:16:48.681Z,25.1
2022-08-05T06:18:49.390Z,25.1
2022-08-05T06:20:50.144Z,25.2
2022-08-05T06:22:50.998Z,25.2
2022-08-05T06:24:52.027Z,25.2
2022-08-05T06:26:53.306Z,25.2
2022-08-05T06:28:53.138Z,25.1
2022-08-05T06:30:53.955Z,25.3
2022-08-05T06:32:54.620Z,25.4
2022-08-05T06:34:57.253Z,25.6
2022-08-05T06:36:57.366Z,25.7
2022-08-05T06:38:56.991Z,25.9
2022-08-05T06:40:57.583Z,25.9
2022-08-05T06:42:58.478Z,25.9
2022-08-05T06:44:59.051Z,26.1
2022-08-05T06:47:02.365Z,26.3
2022-08-05T06:49:01.289Z,26.3
2022-08-05T06:51:03.329Z,26.3
2022-08-05T06:53:11.541Z,26.4
2022-08-05T06:55:03.312Z,26.4
2022-08-05T06:57:47.193Z,26.6
2022-08-05T06:59:08.693Z,26.6
2022-08-05T07:01:06.207Z,26.6
2022-08-05T07:03:07.501Z,26.5
2022-08-05T07:05:18.773Z,26.5
2022-08-05T07:07:08.016Z,26.5
2022-08-05T07:09:08.109Z,26.5
2022-08-05T07:11:15.127Z,26.7
2022-08-05T07:13:09.629Z,26.8
2022-08-05T07:15:10.513Z,26.8
2022-08-05T07:18:02.209Z,27.1
2022-08-05T07:19:11.846Z,27.1
2022-08-05T07:21:12.622Z,27.2
2022-08-05T07:23:26.380Z,27.3
2022-08-05T07:25:54.229Z,27.5
2022-08-05T07:27:14.858Z,27.2
2022-08-05T07:29:15.725Z,27.3
2022-08-05T07:31:16.378Z,27.3
2022-08-05T07:33:17.426Z,27.5
2022-08-05T07:35:55.935Z,27.5
2022-08-05T07:37:18.825Z,27.6
2022-08-05T07:39:50.396Z,27.6
2022-08-05T07:42:13.563Z,27.8
2022-08-05T07:43:21.295Z,27.9
2022-08-05T07:45:56.374Z,28.1
2022-08-05T07:47:25.734Z,27.9
2022-08-05T07:49:22.669Z,27.9
2022-08-05T07:51:37.546Z,27.9
2022-08-05T07:53:26.913Z,27.8
2022-08-05T07:56:04.917Z,27.7
2022-08-05T07:57:55.253Z,28
2022-08-05T07:59:38.013Z,28
2022-08-05T08:01:26.741Z,28
2022-08-05T08:03:44.350Z,28
2022-08-05T08:05:28.313Z,28.2
2022-08-05T08:07:29.216Z,28.2
2022-08-05T08:09:29.300Z,28.2
2022-08-05T08:11:51.281Z,28.3
2022-08-05T08:13:30.730Z,28.3
2022-08-05T08:16:33.785Z,28.6
2022-08-05T08:17:32.456Z,28.7
2022-08-05T08:20:22.756Z,28.9
2022-08-05T08:21:33.465Z,29
2022-08-05T08:24:03.015Z,29.2
2022-08-05T08:25:59.830Z,29.3
2022-08-05T08:27:39.874Z,29.4
2022-08-05T08:30:03.587Z,29.3
2022-08-05T08:31:36.646Z,29.3
2022-08-05T08:33:37.954Z,29.5
2022-08-05T08:35:40.796Z,29.2
2022-08-05T08:37:38.630Z,29.3
2022-08-05T08:39:44.270Z,29.3
2022-08-05T08:41:51.783Z,29.7
2022-08-05T08:45:19.740Z,30
2022-08-05T08:45:42.947Z,30.2
2022-08-05T08:48:06.205Z,30.3
2022-08-05T08:50:06.224Z,30.8
2022-08-05T08:52:04.078Z,31.1
2022-08-05T08:53:45.178Z,31.2
2022-08-05T08:56:02.587Z,30.8
2022-08-05T08:57:57.863Z,30.7
2022-08-05T08:59:47.201Z,30.7
2022-08-05T09:01:46.896Z,30.1
2022-08-05T09:03:55.650Z,29.6
2022-08-05T09:06:07.961Z,29.6
2022-08-05T09:07:57.359Z,29.5
2022-08-05T09:09:49.378Z,30.4
2022-08-05T09:11:51.135Z,31.2
2022-08-05T09:13:50.971Z,31.3
2022-08-05T09:15:51.919Z,31.6
2022-08-05T09:17:53.069Z,31.7
2022-08-05T09:20:01.944Z,31.6
2022-08-05T09:22:21.939Z,31.5
2022-08-05T09:24:03.887Z,31.5
2022-08-05T09:26:08.544Z,31.2
2022-08-05T09:28:04.504Z,30.1
2022-08-05T09:29:57.901Z,30.3
2022-08-05T09:32:42.019Z,31
2022-08-05T09:34:01.959Z,30.3
2022-08-05T09:36:01.799Z,30.1
2022-08-05T09:38:17.915Z,29.8
2022-08-05T09:39:59.568Z,29.4
2022-08-05T09:42:01.712Z,29.3
2022-08-05T09:44:00.942Z,29.4
2022-08-05T09:46:07.106Z,29.6
2022-08-05T09:48:18.681Z,30.3
2022-08-05T09:50:03.664Z,30.7
2022-08-05T09:52:21.805Z,31
2022-08-05T09:54:05.746Z,30.9
2022-08-05T09:56:12.704Z,31
2022-08-05T09:58:10.401Z,30.9
2022-08-05T10:00:09.934Z,30.3
2022-08-05T10:02:08.578Z,30
2022-08-05T10:04:10.962Z,30.2
2022-08-05T10:06:15.715Z,29.4
2022-08-05T10:08:34.865Z,28.9
2022-08-05T10:10:15.748Z,29
2022-08-05T10:12:30.120Z,28.8
2022-08-05T10:14:26.702Z,28.8
2022-08-05T10:16:27.756Z,28.6
2022-08-05T10:18:13.632Z,28.8
2022-08-05T10:20:12.381Z,28.8
2022-08-05T10:22:15.729Z,29.2
2022-08-05T10:24:15.148Z,29.4
2022-08-05T10:26:14.991Z,29.3
2022-08-05T10:28:19.523Z,29.1
2022-08-05T10:31:20.171Z,29.5
2022-08-05T10:32:54.348Z,29.8
2022-08-05T10:34:17.169Z,30.1
2022-08-05T10:36:17.265Z,30
2022-08-05T10:38:20.250Z,30.2
2022-08-05T10:40:28.010Z,29.8
2022-08-05T10:42:33.751Z,29.4
2022-08-05T10:44:21.657Z,29.3
2022-08-05T10:46:23.744Z,29.1
2022-08-05T10:48:35.066Z,29
2022-08-05T10:50:35.310Z,29
2022-08-05T10:52:38.564Z,29
2022-08-05T10:54:29.846Z,29.1
2022-08-05T10:56:26.432Z,29.6
2022-08-05T10:58:35.973Z,29.6
2022-08-05T11:00:29.132Z,29.7
2022-08-05T11:02:38.264Z,29.7
2022-08-05T11:04:27.398Z,29.7
2022-08-05T11:06:31.208Z,29.6
2022-08-05T11:08:38.086Z,29.6
2022-08-05T11:10:29.251Z,29.9
2022-08-05T11:12:45.308Z,30.1
2022-08-05T11:15:01.174Z,30.1
2022-08-05T11:16:47.750Z,29.8
2022-08-05T11:18:32.332Z,29.4
2022-08-05T11:20:34.602Z,29.1
2022-08-05T11:22:42.260Z,28.9
2022-08-05T11:24:32.347Z,28.9
2022-08-05T11:26:33.401Z,28.9
2022-08-05T11:28:40.135Z,28.9
2022-08-05T11:31:06.151Z,28.8
2022-08-05T11:32:34.946Z,29
2022-08-05T11:34:37.927Z,29.4
2022-08-05T11:36:43.046Z,29.5
2022-08-05T11:38:52.174Z,29.5
2022-08-05T11:41:13.890Z,29.5
2022-08-05T11:42:45.208Z,29.6
2022-08-05T11:44:53.010Z,29.6
2022-08-05T11:47:09.656Z,29.7
2022-08-05T11:48:41.743Z,29.7
2022-08-05T11:50:40.605Z,29.7
2022-08-05T11:52:41.254Z,29.7
2022-08-05T11:54:43.574Z,30
2022-08-05T11:56:44.362Z,30.2
2022-08-05T11:58:52.810Z,30.4
2022-08-05T12:00:44.170Z,30.5
2022-08-05T12:02:44.623Z,30.1
2022-08-05T12:04:59.213Z,29.9
2022-08-05T12:06:48.872Z,30
2022-08-05T12:08:51.033Z,30.2
2022-08-05T12:10:48.912Z,30.2
2022-08-05T12:12:59.432Z,30.2
2022-08-05T12:14:48.629Z,30
2022-08-05T12:16:49.047Z,30
2022-08-05T12:18:52.947Z,29.9
2022-08-05T12:20:50.321Z,29.8
2022-08-05T12:22:51.920Z,29.8
2022-08-05T12:24:52.043Z,29.9
2022-08-05T12:26:53.185Z,29.7
2022-08-05T12:28:52.716Z,29.7
2022-08-05T12:30:55.974Z,29.7
2022-08-05T12:32:54.046Z,29.8
2022-08-05T12:34:55.000Z,29.7
2022-08-05T12:36:57.877Z,29.8
2022-08-05T12:38:58.328Z,29.8
2022-08-05T12:40:56.767Z,29.9
2022-08-05T12:42:57.478Z,29.8
2022-08-05T12:45:02.760Z,29.8
2022-08-05T12:46:58.604Z,29.8
2022-08-05T12:49:00.848Z,29.8
2022-08-05T12:51:21.675Z,29.8
2022-08-05T12:53:00.587Z,29.7
2022-08-05T12:55:01.279Z,29.8
2022-08-05T12:57:05.041Z,29.9
2022-08-05T12:59:21.047Z,29.9
2022-08-05T13:02:02.434Z,29.9
2022-08-05T13:03:03.694Z,30
2022-08-05T13:05:06.299Z,30
2022-08-05T13:07:10.456Z,29.8
2022-08-05T13:09:06.694Z,29.7
2022-08-05T13:11:06.433Z,29.4
2022-08-05T13:13:06.842Z,29.5
2022-08-05T13:15:16.390Z,29.5
2022-08-05T13:17:15.433Z,29.4
2022-08-05T13:19:11.968Z,29.5
2022-08-05T13:21:09.406Z,29.5
2022-08-05T13:23:10.947Z,29.5
2022-08-05T13:25:19.551Z,29.4
2022-08-05T13:27:11.347Z,29.5
2022-08-05T13:29:12.238Z,29.5
2022-08-05T13:31:14.446Z,29.2
2022-08-05T13:34:20.140Z,29.2
2022-08-05T13:35:14.717Z,29.1
2022-08-05T13:37:14.748Z,29.2
2022-08-05T13:39:24.491Z,29.4
2022-08-05T13:41:16.189Z,29.4
2022-08-05T13:43:22.149Z,29.4
2022-08-05T13:45:21.448Z,29.5
2022-08-05T13:47:34.947Z,29.6
2022-08-05T13:49:18.122Z,29.6
2022-08-05T13:51:27.855Z,29.6
2022-08-05T13:53:19.255Z,29.6
2022-08-05T13:55:40.967Z,29.6
2022-08-05T13:57:21.447Z,29.7
2022-08-05T13:59:24.177Z,29.8
2022-08-05T14:01:27.378Z,29.8
2022-08-05T14:03:22.510Z,29.8
2022-08-05T14:05:29.414Z,29.8
2022-08-05T14:08:00.881Z,29.9
2022-08-05T14:09:24.494Z,29.9
2022-08-05T14:11:24.951Z,29.9
2022-08-05T14:13:25.523Z,29.9
2022-08-05T14:16:08.735Z,29.7
2022-08-05T14:17:28.372Z,29.7
2022-08-05T14:19:27.455Z,29.7
2022-08-05T14:22:09.150Z,29.6
2022-08-05T14:23:36.658Z,29.4
2022-08-05T14:25:30.257Z,29.4
2022-08-05T14:27:29.920Z,29.4
2022-08-05T14:29:31.419Z,29.4
2022-08-05T14:32:02.379Z,29.4
2022-08-05T14:33:56.507Z,29.4
2022-08-05T14:35:37.455Z,29.4
2022-08-05T14:37:44.827Z,29.3
2022-08-05T14:39:49.776Z,29.3
2022-08-05T14:41:34.713Z,29.3
2022-08-05T14:43:57.816Z,29.3
2022-08-05T14:45:36.329Z,29.3
2022-08-05T14:48:03.857Z,29.1
2022-08-05T14:49:59.610Z,29.1
2022-08-05T14:51:38.671Z,29.1
2022-08-05T14:53:44.278Z,29.1
2022-08-05T14:55:40.202Z,29.1
2022-08-05T14:57:54.316Z,29.1
2022-08-05T14:59:39.742Z,29.1
2022-08-05T15:01:47.963Z,29.1
2022-08-05T15:03:40.850Z,29
2022-08-05T15:06:06.995Z,29
2022-08-05T15:08:06.697Z,29
2022-08-05T15:09:51.658Z,29
2022-08-05T15:11:52.593Z,29
2022-08-05T15:13:46.344Z,29
2022-08-05T15:15:55.629Z,29
2022-08-05T15:17:51.270Z,28.9
2022-08-05T15:19:49.013Z,28.9
2022-08-05T15:21:46.394Z,28.9
2022-08-05T15:23:46.995Z,28.9
2022-08-05T15:25:53.873Z,28.9
2022-08-05T15:27:51.781Z,28.9
2022-08-05T15:29:48.992Z,28.9
2022-08-05T15:31:53.050Z,28.9
2022-08-05T15:34:18.622Z,28.8
2022-08-05T15:35:50.575Z,28.8
2022-08-05T15:38:32.421Z,28.8
2022-08-05T15:41:03.269Z,28.8
2022-08-05T15:41:57.794Z,28.8
2022-08-05T15:43:54.850Z,28.8
2022-08-05T15:46:00.179Z,28.8
2022-08-05T15:47:54.466Z,28.7
2022-08-05T15:49:59.110Z,28.7
2022-08-05T15:52:09.822Z,28.7
2022-08-05T15:53:56.186Z,28.7
2022-08-05T15:56:02.183Z,28.6
2022-08-05T15:57:57.255Z,28.6
2022-08-05T15:59:57.957Z,28.6
2022-08-05T16:01:59.504Z,28.6
2022-08-05T16:03:59.042Z,28.5
2022-08-05T16:05:59.638Z,28.4
2022-08-05T16:08:00.276Z,28.4
2022-08-05T16:10:00.997Z,28.4
2022-08-05T16:12:01.667Z,28.4
2022-08-05T16:14:02.062Z,28.4
2022-08-05T16:16:03.772Z,28.3
2022-08-05T16:18:04.202Z,28.3
2022-08-05T16:20:11.617Z,28.3
2022-08-05T16:22:05.640Z,28.3
2022-08-05T16:24:05.523Z,28.3
2022-08-05T16:26:06.963Z,28.1
2022-08-05T16:28:09.695Z,28.1
2022-08-05T16:30:08.037Z,28.1
2022-08-05T16:32:09.974Z,28.1
2022-08-05T16:34:07.893Z,28
2022-08-05T16:36:09.415Z,28
2022-08-05T16:38:16.871Z,27.9
2022-08-05T16:40:13.691Z,27.9
2022-08-05T16:42:14.309Z,27.9
2022-08-05T16:44:13.069Z,27.8
2022-08-05T16:46:17.118Z,27.7
2022-08-05T16:48:12.078Z,27.7
2022-08-05T16:50:12.590Z,27.7
2022-08-05T16:52:13.209Z,27.6
2022-08-05T16:54:16.146Z,27.6
2022-08-05T16:56:14.456Z,27.5
2022-08-05T16:58:15.057Z,27.4
2022-08-05T17:00:26.246Z,27.3
2022-08-05T17:02:16.519Z,27.3
2022-08-05T17:04:16.805Z,27.2
2022-08-05T17:06:17.366Z,27.1
2022-08-05T17:08:36.321Z,27
2022-08-05T17:10:18.667Z,27
2022-08-05T17:12:22.395Z,26.8
2022-08-05T17:14:22.133Z,26.8
2022-08-05T17:16:32.489Z,26.7
2022-08-05T17:18:20.842Z,26.6
2022-08-05T17:20:21.397Z,26.6
2022-08-05T17:22:25.353Z,26.4
2022-08-05T17:24:34.991Z,26.4
2022-08-05T17:26:22.954Z,26.3
2022-08-05T17:28:23.571Z,26.3
2022-08-05T17:30:28.865Z,26.2
2022-08-05T17:32:24.671Z,26.1
2022-08-05T17:34:30.444Z,26
2022-08-05T17:36:33.675Z,25.9
2022-08-05T17:38:26.186Z,25.9
2022-08-05T17:40:26.772Z,25.7
2022-08-05T17:42:32.497Z,25.7
2022-08-05T17:44:32.536Z,25.5
2022-08-05T17:46:29.421Z,25.5
2022-08-05T17:48:29.001Z,25.4
2022-08-05T17:50:30.729Z,25.3
2022-08-05T17:52:30.098Z,25.1
2022-08-05T17:54:30.542Z,25.1
2022-08-05T17:56:31.296Z,25
2022-08-05T17:58:32.803Z,24.9
2022-08-05T18:00:32.296Z,24.9
2022-08-05T18:02:33.441Z,24.9
2022-08-05T18:04:33.628Z,24.7
2022-08-05T18:06:33.649Z,24.6
2022-08-05T18:08:34.232Z,24.6
2022-08-05T18:10:34.991Z,24.6
2022-08-05T18:12:35.200Z,24.4
2022-08-05T18:14:36.298Z,24.4
2022-08-05T18:16:46.990Z,24.3
2022-08-05T18:18:38.466Z,24.1
2022-08-05T18:20:37.540Z,24
2022-08-05T18:22:53.932Z,24
2022-08-05T18:24:39.539Z,23.9
2022-08-05T18:26:38.873Z,23.8
2022-08-05T18:28:39.334Z,23.8
2022-08-05T18:30:40.230Z,23.8
2022-08-05T18:32:40.310Z,23.8
2022-08-05T18:34:42.761Z,23.8
2022-08-05T18:36:41.474Z,23.6
2022-08-05T18:38:42.134Z,23.6
2022-08-05T18:41:56.853Z,23.5
2022-08-05T18:42:42.772Z,23.4
2022-08-05T18:44:49.368Z,23.4
2022-08-05T18:46:43.705Z,23.3
2022-08-05T18:48:44.121Z,23.3
2022-08-05T18:50:46.388Z,23.3
2022-08-05T18:52:51.318Z,23.3
2022-08-05T18:54:46.132Z,23.3
2022-08-05T18:56:51.154Z,23.2
2022-08-05T18:58:46.521Z,23.1
2022-08-05T19:00:48.054Z,23.1
2022-08-05T19:02:47.968Z,23.1
2022-08-05T19:05:02.272Z,23.1
2022-08-05T19:06:48.474Z,23
2022-08-05T19:08:48.940Z,22.9
2022-08-05T19:10:49.818Z,22.9
2022-08-05T19:12:49.769Z,22.8
2022-08-05T19:15:00.942Z,22.8
2022-08-05T19:16:50.779Z,22.7
2022-08-05T19:18:51.165Z,22.7
2022-08-05T19:20:51.690Z,22.7
2022-08-05T19:22:54.745Z,22.6
2022-08-05T19:24:54.359Z,22.5
2022-08-05T19:26:55.197Z,22.5
2022-08-05T19:28:54.732Z,22.6
2022-08-05T19:30:53.952Z,22.6
2022-08-05T19:32:54.705Z,22.6
2022-08-05T19:34:55.892Z,22.5
2022-08-05T19:36:55.328Z,22.4
2022-08-05T19:39:01.128Z,22.4
2022-08-05T19:40:56.157Z,22.4
2022-08-05T19:43:00.970Z,22.3
2022-08-05T19:44:57.512Z,22.3
2022-08-05T19:46:57.719Z,22.2
2022-08-05T19:49:01.241Z,22.1
2022-08-05T19:50:58.435Z,22.1
2022-08-05T19:53:09.381Z,22.1
2022-08-05T19:55:00.430Z,22.1
2022-08-05T19:57:02.092Z,22.1
2022-08-05T19:59:54.517Z,22
2022-08-05T20:01:00.805Z,21.9
2022-08-05T20:03:01.134Z,21.8
2022-08-05T20:05:04.719Z,21.8
2022-08-05T20:07:02.131Z,21.8
2022-08-05T20:09:06.127Z,21.8
2022-08-05T20:11:03.106Z,21.7
2022-08-05T20:13:03.266Z,21.7
2022-08-05T20:15:04.379Z,21.7
2022-08-05T20:17:04.177Z,21.6
2022-08-05T20:19:05.103Z,21.6
2022-08-05T20:21:06.526Z,21.4
2022-08-05T20:23:05.458Z,21.3
2022-08-05T20:25:06.465Z,21.3
2022-08-05T20:27:11.545Z,21.3
2022-08-05T20:29:06.708Z,21.3
2022-08-05T20:31:07.133Z,21.3
2022-08-05T20:33:07.659Z,21.2
2022-08-05T20:35:07.986Z,21.2
2022-08-05T20:37:17.659Z,21
2022-08-05T20:39:12.011Z,21
2022-08-05T20:41:09.342Z,21
2022-08-05T20:43:09.668Z,21
2022-08-05T20:45:10.504Z,21.2
2022-08-05T20:47:10.462Z,21.2
2022-08-05T20:49:10.980Z,21.2
2022-08-05T20:51:11.310Z,21.1
2022-08-05T20:53:15.772Z,21.1
2022-08-05T20:55:54.471Z,21.1
2022-08-05T20:57:14.348Z,21
2022-08-05T20:59:15.921Z,21
2022-08-05T21:01:13.662Z,21
2022-08-05T21:03:16.684Z,20.9
2022-08-05T21:05:14.170Z,20.9
2022-08-05T21:07:14.585Z,20.9
2022-08-05T21:09:15.257Z,20.7
2022-08-05T21:12:07.338Z,20.7
2022-08-05T21:13:36.727Z,20.7
2022-08-05T21:15:16.714Z,20.7
2022-08-05T21:17:16.641Z,20.8
2022-08-05T21:19:17.013Z,20.8
2022-08-05T21:21:17.426Z,20.6
2022-08-05T21:23:17.858Z,20.6
2022-08-05T21:25:18.402Z,20.6
2022-08-05T21:27:20.528Z,20.5
2022-08-05T21:29:18.986Z,20.5
2022-08-05T21:31:19.461Z,20.5
2022-08-05T21:33:22.505Z,20.4
2022-08-05T21:35:29.596Z,20.4
2022-08-05T21:37:20.566Z,20.3
2022-08-05T21:39:26.577Z,20.3
2022-08-05T21:41:21.400Z,20.3
2022-08-05T21:43:24.698Z,20.3
2022-08-05T21:45:26.545Z,20.1
2022-08-05T21:47:33.056Z,20.2
2022-08-05T21:49:56.509Z,20.2
2022-08-05T21:52:16.637Z,20.3
2022-08-05T21:53:27.639Z,20.3
2022-08-05T21:56:01.457Z,20.2
2022-08-05T21:57:32.896Z,20.2
2022-08-05T21:59:28.066Z,20.1
2022-08-05T22:01:25.742Z,20.1
2022-08-05T22:03:52.307Z,20
2022-08-05T22:05:27.288Z,20
2022-08-05T22:07:40.091Z,19.9
2022-08-05T22:09:46.036Z,19.9
2022-08-05T22:11:35.252Z,19.9
2022-08-05T22:14:05.749Z,19.9
2022-08-05T22:16:02.035Z,19.7
2022-08-05T22:17:28.453Z,19.7
2022-08-05T22:20:00.069Z,19.6
2022-08-05T22:21:29.285Z,19.6
2022-08-05T22:24:02.728Z,19.6
2022-08-05T22:26:09.103Z,19.6
2022-08-05T22:28:09.658Z,19.5
2022-08-05T22:29:32.903Z,19.5
2022-08-05T22:31:31.130Z,19.5
2022-08-05T22:33:56.326Z,19.5
2022-08-05T22:35:38.653Z,19.5
2022-08-05T22:37:58.563Z,19.4
2022-08-05T22:39:34.081Z,19.4
2022-08-05T22:42:11.386Z,19.4
2022-08-05T22:43:36.544Z,19.4
2022-08-05T22:45:33.662Z,19.4
2022-08-05T22:47:34.160Z,19.4
2022-08-05T22:50:20.286Z,19.4
2022-08-05T22:52:05.414Z,19.4
2022-08-05T22:53:35.964Z,19.4
2022-08-05T22:55:37.203Z,19.4
2022-08-05T22:57:36.468Z,19.4
2022-08-05T22:59:45.962Z,19.3
2022-08-05T23:02:04.894Z,19.3
2022-08-05T23:03:58.298Z,19.3
2022-08-05T23:05:37.480Z,19.3
2022-08-05T23:07:44.936Z,19.3
2022-08-05T23:09:57.333Z,19.3
2022-08-05T23:11:38.686Z,19.3
2022-08-05T23:13:38.904Z,19.3
2022-08-05T23:15:39.268Z,19.3
2022-08-05T23:18:00.823Z,19.2
2022-08-05T23:19:46.577Z,19.1
2022-08-05T23:21:42.790Z,19.1
2022-08-05T23:23:40.768Z,19.1
2022-08-05T23:25:51.905Z,19.1
2022-08-05T23:27:57.517Z,19.1
2022-08-05T23:29:41.950Z,19
2022-08-05T23:31:42.289Z,19
2022-08-05T23:34:05.282Z,19
2022-08-05T23:35:43.065Z,19
2022-08-05T23:37:43.674Z,19
2022-08-05T23:39:53.302Z,19
2022-08-05T23:41:48.415Z,18.9
2022-08-05T23:44:05.521Z,18.9
2022-08-05T23:45:44.876Z,18.9
2022-08-05T23:47:47.927Z,18.8
2022-08-05T23:49:45.937Z,18.8
2022-08-05T23:51:45.984Z,18.8
2022-08-05T23:53:47.191Z,18.8
2022-08-05T23:55:46.682Z,18.8
2022-08-05T23:57:51.111Z,18.8
